Time;durP1;ratioP1;P1;durP2;ratioP2;P2;SDS_P1;SDS_P2;PMS_P1;PMS_P2;Temp;Humidity;BMP_temperature;BMP_pressure;BME280_temperature;BME280_humidity;BME280_pressure;Samples;Min_cycle;Max_cycle;Signal;HPM_P1;HPM_P2
2022/03/08 00:02:19;;;;;;;9.13;5.93;;;0.70;85.90;;;;;;5001106;28;20087;-68
2022/03/08 00:04:45;;;;;;;9.75;6.45;;;0.70;85.90;;;;;;4994226;28;20150;-68
2022/03/08 00:07:11;;;;;;;9.30;6.35;;;0.60;86.10;;;;;;5006558;28;20182;-68
2022/03/08 00:09:37;;;;;;;8.93;6.18;;;0.60;86.50;;;;;;4989373;28;20069;-68
2022/03/08 00:12:03;;;;;;;9.18;5.95;;;0.50;86.60;;;;;;5007702;28;20139;-68
2022/03/08 00:14:29;;;;;;;11.20;6.32;;;0.50;87.70;;;;;;4984755;28;20039;-68
2022/03/08 00:16:55;;;;;;;9.40;6.13;;;0.50;87.20;;;;;;4990837;28;20124;-68
2022/03/08 00:19:21;;;;;;;8.02;5.30;;;0.50;86.90;;;;;;5006166;28;20117;-68
2022/03/08 00:21:47;;;;;;;9.98;6.15;;;0.40;86.80;;;;;;4992425;28;20366;-68
2022/03/08 00:24:13;;;;;;;9.73;5.82;;;0.40;87.00;;;;;;4989905;28;20046;-68
2022/03/08 00:26:39;;;;;;;10.57;6.50;;;0.30;87.20;;;;;;4987095;28;20061;-68
2022/03/08 00:29:05;;;;;;;10.48;6.60;;;0.30;87.40;;;;;;4973756;28;20115;-68
2022/03/08 00:31:30;;;;;;;10.15;6.03;;;0.20;87.50;;;;;;5002150;28;20047;-68
2022/03/08 00:33:56;;;;;;;8.77;6.25;;;0.10;87.70;;;;;;4982537;28;20478;-68
2022/03/08 00:36:22;;;;;;;8.27;6.20;;;0.10;87.90;;;;;;4971381;28;20054;-68
2022/03/08 00:38:48;;;;;;;8.20;5.80;;;0.00;88.10;;;;;;4988754;28;20140;-68
2022/03/08 00:41:14;;;;;;;9.52;5.93;;;0.00;88.30;;;;;;4988666;28;20038;-68
2022/03/08 00:43:40;;;;;;;9.02;6.13;;;-0.10;88.70;;;;;;4983667;28;20601;-68
2022/03/08 00:46:06;;;;;;;9.15;6.20;;;-0.10;88.70;;;;;;4982329;28;20177;-68
2022/03/08 00:48:32;;;;;;;8.35;6.22;;;-0.20;88.90;;;;;;4984535;28;20055;-68
2022/03/08 00:50:58;;;;;;;8.80;6.18;;;-0.20;89.10;;;;;;4985572;28;20127;-68
2022/03/08 00:53:24;;;;;;;10.82;7.07;;;-0.30;89.20;;;;;;4985124;28;20070;-68
2022/03/08 00:55:50;;;;;;;8.10;5.80;;;-0.30;89.40;;;;;;4984598;28;20466;-68
2022/03/08 00:58:15;;;;;;;10.30;6.47;;;-0.40;89.70;;;;;;4979465;28;20031;-67
2022/03/08 01:00:42;;;;;;;9.48;5.72;;;-0.40;89.90;;;;;;4982021;28;20183;-67
2022/03/08 01:03:08;;;;;;;9.75;7.28;;;-0.40;90.00;;;;;;4986543;28;20451;-68
2022/03/08 01:05:34;;;;;;;9.07;6.80;;;-0.40;90.20;;;;;;4983942;28;20038;-67
2022/03/08 01:08:00;;;;;;;9.18;6.53;;;-0.40;90.40;;;;;;4989288;28;20052;-67
2022/03/08 01:10:27;;;;;;;12.32;7.47;;;-0.40;90.70;;;;;;4994810;28;20489;-67
2022/03/08 01:12:54;;;;;;;9.25;6.53;;;-0.40;90.90;;;;;;4987801;28;20180;-67
2022/03/08 01:15:21;;;;;;;9.95;6.38;;;-0.30;90.80;;;;;;4981412;28;20463;-67
2022/03/08 01:17:48;;;;;;;9.15;6.50;;;-0.30;90.80;;;;;;4985658;28;20042;-67
2022/03/08 01:20:14;;;;;;;10.98;6.70;;;-0.30;90.90;;;;;;4981065;28;20046;-67
2022/03/08 01:22:41;;;;;;;10.27;7.18;;;-0.30;90.90;;;;;;4987309;28;20046;-67
2022/03/08 01:25:08;;;;;;;9.80;6.90;;;-0.30;90.90;;;;;;4988207;28;20043;-67
2022/03/08 01:27:34;;;;;;;12.00;7.88;;;-0.30;91.00;;;;;;4984016;28;20124;-67
2022/03/08 01:30:00;;;;;;;10.75;7.78;;;-0.30;91.00;;;;;;4985006;28;20807;-68
2022/03/08 01:32:26;;;;;;;11.23;7.20;;;-0.40;91.60;;;;;;4983466;28;20051;-67
2022/03/08 01:34:52;;;;;;;10.25;6.97;;;-0.30;91.40;;;;;;4980538;28;20047;-67
2022/03/08 01:37:17;;;;;;;10.25;6.78;;;-0.30;91.40;;;;;;4987435;28;20050;-67
2022/03/08 01:39:43;;;;;;;12.10;7.03;;;-0.30;91.80;;;;;;4986170;28;20093;-67
2022/03/08 01:42:11;;;;;;;13.57;7.90;;;-0.30;92.00;;;;;;4982522;28;20142;-67
2022/03/08 01:44:40;;;;;;;10.45;7.45;;;-0.20;91.70;;;;;;4973928;28;20064;-67
2022/03/08 01:47:06;;;;;;;12.15;7.65;;;-0.20;91.70;;;;;;4984510;28;20457;-67
2022/03/08 01:49:32;;;;;;;10.38;7.40;;;-0.20;91.90;;;;;;4983954;28;20055;-67
2022/03/08 01:51:58;;;;;;;14.05;8.30;;;-0.20;92.40;;;;;;4985950;28;20046;-67
2022/03/08 01:54:23;;;;;;;11.82;7.72;;;-0.20;92.80;;;;;;4983683;28;20082;-67
2022/03/08 01:56:49;;;;;;;11.00;7.88;;;-0.20;92.40;;;;;;4990622;28;20038;-67
2022/03/08 01:59:15;;;;;;;9.32;7.03;;;-0.20;92.20;;;;;;4984449;28;20423;-67
2022/03/08 02:01:41;;;;;;;12.82;7.97;;;-0.20;92.40;;;;;;4987436;28;20073;-67
2022/03/08 02:04:07;;;;;;;11.45;7.78;;;-0.10;93.80;;;;;;4997084;28;20072;-67
2022/03/08 02:06:32;;;;;;;11.63;8.25;;;-0.10;93.10;;;;;;4983021;28;20130;-67
2022/03/08 02:08:58;;;;;;;11.40;8.00;;;-0.10;93.30;;;;;;4983760;28;20042;-67
2022/03/08 02:11:24;;;;;;;11.40;8.23;;;-0.10;93.50;;;;;;4986036;28;20136;-68
2022/03/08 02:13:50;;;;;;;10.23;7.60;;;0.00;93.90;;;;;;5004608;28;20034;-67
2022/03/08 02:16:16;;;;;;;10.13;7.75;;;0.00;93.40;;;;;;4979554;28;20590;-67
2022/03/08 02:18:42;;;;;;;14.40;8.60;;;0.00;92.90;;;;;;4979471;28;20172;-68
2022/03/08 02:21:08;;;;;;;12.70;8.15;;;0.00;93.00;;;;;;4984207;28;20128;-67
2022/03/08 02:23:35;;;;;;;12.30;8.43;;;0.00;93.20;;;;;;4985033;28;20042;-67
2022/03/08 02:26:01;;;;;;;12.27;8.07;;;0.00;93.20;;;;;;5000942;28;20054;-67
2022/03/08 02:28:28;;;;;;;14.23;8.88;;;-0.10;93.00;;;;;;4980687;28;20053;-68
2022/03/08 02:30:54;;;;;;;13.15;8.93;;;-0.10;93.20;;;;;;4977304;28;20118;-67
2022/03/08 02:33:20;;;;;;;16.70;9.13;;;-0.10;93.10;;;;;;4985631;28;20046;-67
2022/03/08 02:35:46;;;;;;;10.60;8.13;;;-0.10;93.00;;;;;;4984736;28;20049;-67
2022/03/08 02:38:12;;;;;;;13.05;8.75;;;-0.10;93.20;;;;;;4988510;28;20039;-67
2022/03/08 02:40:40;;;;;;;13.00;9.13;;;-0.10;93.20;;;;;;4988681;28;20061;-68
2022/03/08 02:43:08;;;;;;;12.82;8.80;;;0.00;93.20;;;;;;4981720;28;20046;-68
2022/03/08 02:45:34;;;;;;;13.55;9.50;;;0.00;93.30;;;;;;4979456;28;20046;-68
2022/03/08 02:48:00;;;;;;;14.07;8.98;;;0.00;93.20;;;;;;4979476;28;20270;-68
2022/03/08 02:50:26;;;;;;;17.25;9.95;;;0.00;93.20;;;;;;4984642;28;20065;-68
2022/03/08 02:52:54;;;;;;;13.68;10.00;;;0.00;93.20;;;;;;4984052;28;20047;-67
2022/03/08 02:55:24;;;;;;;17.45;10.65;;;0.00;93.40;;;;;;4980440;28;20522;-67
2022/03/08 02:57:51;;;;;;;17.58;10.68;;;0.00;93.50;;;;;;4979865;28;20082;-68
2022/03/08 03:00:19;;;;;;;15.90;9.70;;;-0.10;93.40;;;;;;4983763;28;20042;-68
2022/03/08 03:02:45;;;;;;;13.32;9.32;;;-0.10;93.40;;;;;;4982919;28;20201;-68
2022/03/08 03:05:12;;;;;;;14.88;10.32;;;-0.10;93.80;;;;;;4984778;28;20114;-68
2022/03/08 03:07:38;;;;;;;16.05;10.50;;;-0.10;93.90;;;;;;4984007;28;20074;-68
2022/03/08 03:10:09;;;;;;;15.07;10.18;;;-0.10;93.80;;;;;;4984436;28;20081;-68
2022/03/08 03:12:35;;;;;;;15.48;11.07;;;-0.10;93.80;;;;;;4979315;28;20053;-68
2022/03/08 03:15:02;;;;;;;16.38;10.13;;;-0.10;93.90;;;;;;4980925;28;20099;-68
2022/03/08 03:17:28;;;;;;;14.38;10.80;;;-0.10;93.90;;;;;;4983110;28;20050;-68
2022/03/08 03:19:53;;;;;;;15.05;11.02;;;-0.10;93.90;;;;;;4982203;28;20034;-68
2022/03/08 03:22:19;;;;;;;15.57;10.75;;;-0.10;94.00;;;;;;4976700;28;20038;-68
2022/03/08 03:24:45;;;;;;;14.82;10.98;;;-0.10;94.00;;;;;;4984921;28;20042;-68
2022/03/08 03:27:10;;;;;;;16.38;11.73;;;-0.10;94.00;;;;;;4994177;28;20053;-68
2022/03/08 03:29:36;;;;;;;15.38;11.75;;;-0.20;94.00;;;;;;5002165;28;20045;-68
2022/03/08 03:32:02;;;;;;;16.08;11.68;;;-0.20;94.10;;;;;;5001541;28;20083;-68
2022/03/08 03:34:28;;;;;;;17.17;12.02;;;-0.20;94.10;;;;;;4988459;28;20072;-68
2022/03/08 03:36:53;;;;;;;15.90;11.80;;;-0.20;94.30;;;;;;4992315;28;20070;-68
2022/03/08 03:39:19;;;;;;;16.38;10.65;;;-0.20;94.50;;;;;;4996259;28;20041;-68
2022/03/08 03:41:45;;;;;;;15.77;10.88;;;-0.20;94.40;;;;;;4998616;28;20093;-68
2022/03/08 03:44:11;;;;;;;19.08;11.93;;;-0.20;94.30;;;;;;4987050;28;20050;-68
2022/03/08 03:46:37;;;;;;;16.30;11.55;;;-0.20;94.60;;;;;;5004128;28;20088;-68
2022/03/08 03:49:03;;;;;;;17.33;12.27;;;-0.20;94.80;;;;;;5006408;28;20038;-68
2022/03/08 03:51:28;;;;;;;18.33;12.27;;;-0.20;94.60;;;;;;4984434;28;20038;-68
2022/03/08 03:53:54;;;;;;;18.40;11.95;;;-0.20;95.10;;;;;;5004823;28;20145;-68
2022/03/08 03:56:20;;;;;;;20.83;12.40;;;-0.20;94.90;;;;;;5005433;28;20054;-68
2022/03/08 03:58:46;;;;;;;16.42;11.95;;;-0.20;94.70;;;;;;5006369;28;20038;-68
2022/03/08 04:01:12;;;;;;;17.35;12.13;;;-0.30;94.90;;;;;;5006587;28;20118;-68
2022/03/08 04:03:37;;;;;;;19.30;13.23;;;-0.30;94.90;;;;;;4993599;28;20045;-67
2022/03/08 04:06:03;;;;;;;19.23;13.27;;;-0.30;95.10;;;;;;5006043;28;20447;-67
2022/03/08 04:08:29;;;;;;;17.88;12.80;;;-0.30;95.30;;;;;;4986377;28;20057;-67
2022/03/08 04:10:55;;;;;;;15.73;11.77;;;-0.30;95.20;;;;;;4998516;28;20128;-67
2022/03/08 04:13:20;;;;;;;16.52;12.68;;;-0.30;95.30;;;;;;4974507;28;20053;-67
2022/03/08 04:15:46;;;;;;;19.63;12.45;;;-0.30;95.30;;;;;;5008011;28;20040;-67
2022/03/08 04:18:12;;;;;;;18.30;12.88;;;-0.30;95.30;;;;;;4982828;28;20038;-67
2022/03/08 04:20:38;;;;;;;19.88;13.52;;;-0.30;95.40;;;;;;4989871;28;20077;-67
2022/03/08 04:23:04;;;;;;;21.42;13.55;;;-0.30;95.40;;;;;;4991779;28;20444;-67
2022/03/08 04:25:30;;;;;;;19.02;12.18;;;-0.30;95.50;;;;;;5003982;28;20124;-67
2022/03/08 04:27:56;;;;;;;20.42;13.15;;;-0.30;95.50;;;;;;5003039;28;20081;-67
2022/03/08 04:30:22;;;;;;;18.08;12.57;;;-0.30;95.60;;;;;;4993020;28;20073;-67
2022/03/08 04:32:50;;;;;;;19.23;13.85;;;-0.40;95.60;;;;;;4990095;28;20441;-67
2022/03/08 04:35:17;;;;;;;19.55;13.43;;;-0.40;96.00;;;;;;4991139;28;20042;-67
2022/03/08 04:37:43;;;;;;;16.02;12.80;;;-0.40;96.30;;;;;;4990086;28;20085;-67
2022/03/08 04:40:10;;;;;;;17.38;12.65;;;-0.40;96.00;;;;;;4984043;28;20507;-67
2022/03/08 04:42:35;;;;;;;18.45;13.63;;;-0.40;95.90;;;;;;5004783;28;20065;-67
2022/03/08 04:45:02;;;;;;;22.10;13.68;;;-0.50;96.00;;;;;;4989228;28;20042;-67
2022/03/08 04:47:27;;;;;;;20.88;13.23;;;-0.40;96.20;;;;;;5003301;28;20033;-67
2022/03/08 04:49:53;;;;;;;17.90;13.25;;;-0.40;96.30;;;;;;5003896;28;20043;-68
2022/03/08 04:52:19;;;;;;;19.05;13.10;;;-0.40;96.20;;;;;;4987620;28;20038;-68
2022/03/08 04:54:44;;;;;;;19.33;13.70;;;-0.40;96.20;;;;;;4988166;28;20038;-68
2022/03/08 04:57:10;;;;;;;19.80;13.88;;;-0.40;96.30;;;;;;5005663;28;20039;-68
2022/03/08 04:59:36;;;;;;;21.33;14.32;;;-0.40;96.30;;;;;;4991838;28;20473;-68
2022/03/08 05:02:02;;;;;;;17.20;13.43;;;-0.40;96.40;;;;;;4986090;28;20042;-68
2022/03/08 05:04:27;;;;;;;19.08;13.10;;;-0.40;96.40;;;;;;5008116;28;20378;-67
2022/03/08 05:06:53;;;;;;;19.50;13.38;;;-0.50;96.40;;;;;;4985630;28;20080;-67
2022/03/08 05:09:19;;;;;;;18.73;13.90;;;-0.50;96.40;;;;;;5007176;28;20052;-67
2022/03/08 05:11:44;;;;;;;17.95;13.25;;;-0.50;96.60;;;;;;4986310;28;20069;-67
2022/03/08 05:14:10;;;;;;;20.80;14.18;;;-0.50;96.60;;;;;;4988814;28;20045;-67
2022/03/08 05:16:37;;;;;;;21.15;15.02;;;-0.50;96.50;;;;;;5005583;28;20342;-68
2022/03/08 05:19:02;;;;;;;18.88;14.15;;;-0.50;96.70;;;;;;5004155;28;20042;-68
2022/03/08 05:21:28;;;;;;;20.58;14.18;;;-0.50;97.50;;;;;;5002729;28;20030;-68
2022/03/08 05:23:53;;;;;;;18.98;14.07;;;-0.50;97.20;;;;;;4970954;28;20099;-68
2022/03/08 05:26:19;;;;;;;20.48;14.13;;;-0.50;97.60;;;;;;4985237;28;20061;-68
2022/03/08 05:28:46;;;;;;;19.23;14.63;;;-0.50;97.30;;;;;;5007649;28;20049;-68
2022/03/08 05:31:13;;;;;;;20.85;15.30;;;-0.50;97.60;;;;;;4985595;28;20132;-67
2022/03/08 05:33:39;;;;;;;19.77;14.35;;;-0.40;97.90;;;;;;5001528;28;20037;-68
2022/03/08 05:36:05;;;;;;;22.42;14.60;;;-0.40;97.60;;;;;;4984912;28;20155;-68
2022/03/08 05:38:31;;;;;;;18.17;14.32;;;-0.50;97.40;;;;;;4975314;28;20089;-68
2022/03/08 05:40:57;;;;;;;21.63;13.77;;;-0.40;97.50;;;;;;5002261;28;20432;-68
2022/03/08 05:43:22;;;;;;;20.42;14.32;;;-0.40;97.80;;;;;;4984241;28;20033;-68
2022/03/08 05:45:48;;;;;;;22.77;14.85;;;-0.40;98.00;;;;;;4985138;28;20113;-68
2022/03/08 05:48:14;;;;;;;20.88;14.52;;;-0.40;97.80;;;;;;5001509;28;20076;-68
2022/03/08 05:50:40;;;;;;;20.83;14.65;;;-0.40;97.70;;;;;;4988043;28;20058;-68
2022/03/08 05:53:06;;;;;;;20.60;13.02;;;-0.40;97.90;;;;;;5002617;28;20038;-68
2022/03/08 05:55:33;;;;;;;22.38;14.98;;;-0.40;97.90;;;;;;4987978;28;20372;-68
2022/03/08 05:57:59;;;;;;;18.98;14.18;;;-0.40;97.80;;;;;;4999761;28;20064;-68
2022/03/08 06:00:25;;;;;;;23.90;14.50;;;-0.40;98.00;;;;;;4981981;28;20034;-68
2022/03/08 06:02:51;;;;;;;17.88;13.43;;;-0.40;97.70;;;;;;5003034;28;20493;-68
2022/03/08 06:05:17;;;;;;;17.60;13.25;;;-0.40;98.10;;;;;;4982267;28;20045;-68
2022/03/08 06:07:43;;;;;;;17.60;13.45;;;-0.40;97.70;;;;;;4982217;28;20069;-68
2022/03/08 06:10:09;;;;;;;20.20;13.65;;;-0.40;97.80;;;;;;5004348;28;20837;-68
2022/03/08 06:12:36;;;;;;;19.38;13.95;;;-0.40;97.80;;;;;;5004142;28;20038;-68
2022/03/08 06:15:04;;;;;;;18.35;13.40;;;-0.40;97.90;;;;;;4983654;28;20040;-68
2022/03/08 06:17:29;;;;;;;20.65;13.13;;;-0.40;98.10;;;;;;4983707;28;20042;-68
2022/03/08 06:19:55;;;;;;;18.77;13.43;;;-0.40;97.90;;;;;;4987134;28;20046;-68
2022/03/08 06:22:21;;;;;;;16.55;12.80;;;-0.40;97.90;;;;;;5004255;28;20145;-68
2022/03/08 06:24:47;;;;;;;19.75;13.90;;;-0.40;97.90;;;;;;4998776;28;20041;-68
2022/03/08 06:27:13;;;;;;;18.73;13.27;;;-0.40;97.90;;;;;;5003883;28;20546;-68
2022/03/08 06:29:39;;;;;;;17.88;13.25;;;-0.40;97.90;;;;;;4986618;28;20069;-68
2022/03/08 06:32:06;;;;;;;17.38;12.93;;;-0.30;98.30;;;;;;5002600;28;20082;-68
2022/03/08 06:34:31;;;;;;;18.92;13.95;;;-0.30;98.60;;;;;;4981535;28;20543;-68
2022/03/08 06:36:57;;;;;;;18.58;13.27;;;-0.30;98.40;;;;;;4987183;28;20046;-68
2022/03/08 06:39:23;;;;;;;18.92;13.75;;;-0.20;98.90;;;;;;4984427;28;20509;-68
2022/03/08 06:41:48;;;;;;;21.10;13.05;;;-0.10;98.50;;;;;;5002211;28;20185;-68
2022/03/08 06:44:14;;;;;;;16.65;12.10;;;0.00;98.40;;;;;;4969723;28;20064;-68
2022/03/08 06:46:46;;;;;;;16.70;12.48;;;0.10;98.30;;;;;;4989835;28;22299;-68
2022/03/08 06:49:12;;;;;;;17.27;12.52;;;0.10;98.10;;;;;;5000866;28;20072;-68
2022/03/08 06:51:38;;;;;;;15.50;12.80;;;0.20;98.00;;;;;;5004547;28;20048;-68
2022/03/08 06:54:05;;;;;;;15.10;12.45;;;0.30;98.10;;;;;;4984339;28;20502;-68
2022/03/08 06:56:33;;;;;;;14.02;11.48;;;0.40;97.90;;;;;;4989477;28;20113;-68
2022/03/08 06:59:00;;;;;;;15.35;12.13;;;0.50;97.70;;;;;;4985343;28;20068;-68
2022/03/08 07:01:25;;;;;;;14.15;12.07;;;0.60;97.60;;;;;;4997581;28;20058;-68
2022/03/08 07:03:51;;;;;;;14.85;11.60;;;0.70;97.40;;;;;;4999296;28;20603;-68
2022/03/08 07:06:17;;;;;;;15.73;12.00;;;0.80;97.20;;;;;;4988105;28;20054;-68
2022/03/08 07:08:43;;;;;;;16.20;12.00;;;0.90;97.00;;;;;;5003908;28;20041;-68
2022/03/08 07:11:09;;;;;;;15.85;11.70;;;1.00;96.70;;;;;;4987902;28;20046;-68
2022/03/08 07:13:35;;;;;;;15.07;11.55;;;1.10;96.60;;;;;;5008855;28;20065;-68
2022/03/08 07:16:01;;;;;;;16.50;12.43;;;1.20;96.50;;;;;;5006526;28;20230;-68
2022/03/08 07:18:27;;;;;;;16.17;11.88;;;1.40;96.30;;;;;;4989748;28;20057;-68
2022/03/08 07:20:54;;;;;;;14.73;11.75;;;1.50;96.20;;;;;;5004961;28;20169;-68
2022/03/08 07:23:19;;;;;;;15.27;11.20;;;1.60;96.00;;;;;;5001147;28;20093;-68
2022/03/08 07:25:45;;;;;;;14.02;12.00;;;1.70;96.20;;;;;;5005110;28;20033;-68
2022/03/08 07:28:11;;;;;;;15.88;11.75;;;1.90;96.30;;;;;;5002687;28;20053;-68
2022/03/08 07:30:37;;;;;;;16.17;11.75;;;2.00;96.00;;;;;;5003449;28;20053;-68
2022/03/08 07:33:02;;;;;;;13.88;11.23;;;2.30;97.00;;;;;;5002545;28;20103;-68
2022/03/08 07:35:28;;;;;;;15.52;11.82;;;2.80;96.50;;;;;;4985928;28;20053;-69
2022/03/08 07:37:54;;;;;;;15.00;11.93;;;3.60;94.10;;;;;;4994170;28;20053;-69
2022/03/08 07:40:20;;;;;;;14.23;10.77;;;4.30;93.30;;;;;;4992530;28;20100;-69
2022/03/08 07:42:45;;;;;;;12.80;10.45;;;5.10;92.00;;;;;;5005910;28;20109;-69
2022/03/08 07:45:11;;;;;;;15.73;11.15;;;5.80;90.70;;;;;;4991157;28;20069;-69
2022/03/08 07:47:37;;;;;;;13.75;10.77;;;6.40;89.30;;;;;;5000642;28;20069;-69
2022/03/08 07:50:05;;;;;;;13.20;10.02;;;7.00;85.30;;;;;;5001213;28;20050;-69
2022/03/08 07:52:30;;;;;;;11.75;10.00;;;7.70;83.50;;;;;;5003006;28;20053;-70
2022/03/08 07:54:56;;;;;;;10.98;9.75;;;8.10;81.10;;;;;;5010637;28;20092;-69
2022/03/08 07:57:22;;;;;;;12.45;10.00;;;8.60;80.10;;;;;;4999482;28;20038;-68
2022/03/08 07:59:48;;;;;;;10.32;9.23;;;8.90;77.40;;;;;;5005981;28;20038;-69
2022/03/08 08:02:13;;;;;;;10.63;9.52;;;9.00;75.00;;;;;;5008326;28;20062;-69
2022/03/08 08:04:39;;;;;;;11.02;9.18;;;9.30;73.20;;;;;;5006150;28;20500;-68
2022/03/08 08:07:05;;;;;;;12.82;9.60;;;9.50;72.20;;;;;;4984201;28;20045;-68
2022/03/08 08:09:31;;;;;;;11.23;8.55;;;9.60;70.80;;;;;;5005003;28;20038;-68
2022/03/08 08:11:56;;;;;;;9.98;8.77;;;9.90;68.60;;;;;;5003784;28;20053;-68
2022/03/08 08:14:22;;;;;;;10.70;9.35;;;10.10;67.30;;;;;;4995378;28;20045;-68
2022/03/08 08:16:48;;;;;;;18.75;9.35;;;10.30;66.10;;;;;;5004606;28;20040;-68
2022/03/08 08:19:14;;;;;;;9.45;8.10;;;10.70;66.40;;;;;;5002518;28;20042;-68
2022/03/08 08:21:40;;;;;;;9.73;8.73;;;11.00;64.70;;;;;;5007582;28;20120;-69
2022/03/08 08:24:06;;;;;;;9.95;8.70;;;11.20;63.10;;;;;;4990915;28;20046;-69
2022/03/08 08:26:32;;;;;;;11.23;8.65;;;11.40;62.10;;;;;;5009815;28;20527;-68
2022/03/08 08:28:57;;;;;;;8.35;7.55;;;11.50;60.80;;;;;;5008367;28;20045;-68
2022/03/08 08:31:23;;;;;;;9.57;8.68;;;11.70;61.10;;;;;;5004324;28;20052;-68
2022/03/08 08:33:50;;;;;;;8.70;7.80;;;11.80;61.40;;;;;;5004010;28;20099;-68
2022/03/08 08:36:16;;;;;;;8.75;7.85;;;12.00;59.60;;;;;;5000480;28;20038;-68
2022/03/08 08:38:42;;;;;;;8.82;7.95;;;12.10;58.60;;;;;;5004656;28;20061;-69
2022/03/08 08:41:08;;;;;;;11.60;8.40;;;12.30;58.50;;;;;;4988239;28;20038;-68
2022/03/08 08:43:34;;;;;;;9.18;7.93;;;12.20;57.80;;;;;;4988303;28;20046;-68
2022/03/08 08:46:00;;;;;;;8.45;7.65;;;12.50;57.60;;;;;;5005167;28;20620;-68
2022/03/08 08:48:26;;;;;;;8.75;7.43;;;12.70;57.30;;;;;;5005140;28;20046;-68
2022/03/08 08:50:53;;;;;;;9.02;8.13;;;12.80;56.00;;;;;;5005587;28;20123;-68
2022/03/08 08:53:19;;;;;;;8.60;7.70;;;13.10;56.90;;;;;;5006845;28;20042;-69
2022/03/08 08:55:45;;;;;;;9.63;7.63;;;13.30;55.30;;;;;;4988059;28;20037;-68
2022/03/08 08:58:11;;;;;;;11.07;7.72;;;13.10;54.50;;;;;;5008082;28;20038;-68
2022/03/08 09:00:36;;;;;;;8.70;7.90;;;13.10;54.10;;;;;;5006184;28;20041;-68
2022/03/08 09:03:03;;;;;;;9.23;8.32;;;13.00;54.20;;;;;;4986039;28;20030;-68
2022/03/08 09:05:29;;;;;;;9.05;7.80;;;12.90;54.10;;;;;;5004384;28;20461;-68
2022/03/08 09:07:55;;;;;;;8.25;7.50;;;13.10;54.10;;;;;;4987448;28;20042;-68
2022/03/08 09:10:23;;;;;;;7.95;7.15;;;13.30;53.30;;;;;;4999954;28;20575;-68
2022/03/08 09:12:51;;;;;;;7.75;6.95;;;13.50;53.70;;;;;;5003149;28;20041;-68
2022/03/08 09:15:18;;;;;;;8.38;7.57;;;13.50;52.30;;;;;;5001878;28;20046;-68
2022/03/08 09:17:44;;;;;;;8.05;7.25;;;13.70;53.00;;;;;;5005173;28;20493;-68
2022/03/08 09:20:10;;;;;;;7.55;6.65;;;13.70;51.30;;;;;;5003103;28;20128;-68
2022/03/08 09:22:36;;;;;;;9.70;7.03;;;13.80;51.10;;;;;;5002944;28;20046;-68
2022/03/08 09:25:03;;;;;;;8.60;6.85;;;13.60;50.40;;;;;;4988943;28;20053;-68
2022/03/08 09:27:30;;;;;;;8.27;6.68;;;13.70;50.60;;;;;;5004517;28;20077;-69
2022/03/08 09:29:56;;;;;;;8.10;6.57;;;13.90;51.50;;;;;;4997475;28;20054;-68
2022/03/08 09:32:23;;;;;;;9.02;6.90;;;13.90;49.80;;;;;;5002563;28;20112;-68
2022/03/08 09:34:49;;;;;;;6.93;6.25;;;13.70;49.70;;;;;;4987040;28;20132;-69
2022/03/08 09:37:15;;;;;;;6.35;5.60;;;13.90;50.10;;;;;;5000812;28;20037;-69
2022/03/08 09:39:41;;;;;;;8.02;6.15;;;14.00;49.50;;;;;;4998655;28;20038;-68
2022/03/08 09:42:07;;;;;;;7.13;6.43;;;14.00;48.80;;;;;;5003470;28;20370;-68
2022/03/08 09:44:33;;;;;;;7.82;5.97;;;14.10;47.50;;;;;;4986162;28;20053;-68
2022/03/08 09:46:59;;;;;;;8.38;6.45;;;14.00;48.60;;;;;;4998746;28;20536;-68
2022/03/08 09:49:25;;;;;;;7.28;6.20;;;13.90;48.70;;;;;;4972659;28;20112;-69
2022/03/08 09:51:52;;;;;;;7.70;6.35;;;14.10;48.70;;;;;;5002976;28;20050;-68
2022/03/08 09:54:18;;;;;;;6.47;5.88;;;14.30;49.30;;;;;;5004668;28;20043;-68
2022/03/08 09:56:44;;;;;;;6.63;5.90;;;14.30;48.10;;;;;;4998149;28;20057;-68
2022/03/08 09:59:09;;;;;;;7.60;6.00;;;14.40;49.10;;;;;;5004851;28;20042;-68
2022/03/08 10:01:35;;;;;;;6.45;5.85;;;14.50;48.10;;;;;;5003150;28;20041;-69
2022/03/08 10:04:01;;;;;;;7.38;5.88;;;14.80;48.10;;;;;;5004926;28;20041;-69
2022/03/08 10:06:44;;;;;;;6.00;5.40;;;15.20;47.70;;;;;;4990202;28;20746;-69
2022/03/08 10:09:14;;;;;;;5.93;5.35;;;15.20;46.10;;;;;;5005349;28;20501;-69
2022/03/08 10:11:40;;;;;;;5.20;4.70;;;15.30;46.70;;;;;;5001800;28;20053;-69
2022/03/08 10:14:10;;;;;;;6.60;4.82;;;15.60;45.50;;;;;;5000678;28;20074;-69
2022/03/08 10:16:44;;;;;;;6.53;5.35;;;15.40;44.30;;;;;;5002328;28;20041;-69
2022/03/08 10:19:11;;;;;;;5.25;4.75;;;15.40;45.20;;;;;;4989783;28;20052;-69
2022/03/08 10:21:48;;;;;;;6.72;5.15;;;15.70;45.40;;;;;;4980807;28;20049;-69
2022/03/08 10:24:20;;;;;;;5.90;4.82;;;15.80;44.70;;;;;;4998979;28;20041;-69
2022/03/08 10:26:59;;;;;;;5.13;4.63;;;15.90;44.20;;;;;;5003326;28;20461;-69
2022/03/08 10:29:36;;;;;;;5.40;4.90;;;16.00;42.30;;;;;;4985435;28;20058;-69
2022/03/08 10:32:09;;;;;;;5.93;4.93;;;15.70;43.10;;;;;;5002373;28;20031;-69
2022/03/08 10:34:40;;;;;;;5.73;5.13;;;16.10;44.10;;;;;;4981219;28;20054;-69
2022/03/08 10:37:14;;;;;;;5.22;4.72;;;15.90;42.50;;;;;;4984603;28;20065;-69
2022/03/08 10:39:53;;;;;;;5.72;4.68;;;15.70;42.70;;;;;;5002241;28;20034;-68
2022/03/08 10:42:20;;;;;;;5.25;4.82;;;15.80;42.60;;;;;;4999017;28;20041;-68
2022/03/08 10:44:47;;;;;;;5.03;4.55;;;15.60;42.10;;;;;;5005796;28;20061;-68
2022/03/08 10:47:14;;;;;;;5.82;4.50;;;15.60;42.50;;;;;;4999982;28;20129;-69
2022/03/08 10:49:49;;;;;;;5.85;4.30;;;15.50;41.20;;;;;;4999010;28;20121;-69
2022/03/08 10:52:15;;;;;;;6.43;4.72;;;15.40;40.70;;;;;;4982214;28;20062;-69
2022/03/08 10:54:40;;;;;;;4.85;4.32;;;15.10;41.40;;;;;;5001874;28;20116;-69
2022/03/08 10:57:08;;;;;;;4.70;4.25;;;15.20;41.90;;;;;;5005005;28;20054;-68
2022/03/08 10:59:34;;;;;;;5.65;4.57;;;15.40;42.10;;;;;;5004889;28;20118;-68
2022/03/08 11:02:19;;;;;;;4.65;4.07;;;15.50;41.80;;;;;;5002876;28;20038;-69
2022/03/08 11:04:45;;;;;;;6.82;4.80;;;15.40;39.60;;;;;;4986207;28;20121;-68
2022/03/08 11:07:12;;;;;;;4.55;4.10;;;15.20;40.60;;;;;;5000868;28;20200;-68
2022/03/08 11:09:38;;;;;;;5.35;4.85;;;15.20;40.40;;;;;;5002476;28;20037;-68
2022/03/08 11:12:05;;;;;;;5.15;4.25;;;15.40;41.60;;;;;;5005129;28;20035;-69
2022/03/08 11:14:30;;;;;;;4.90;4.50;;;15.60;41.70;;;;;;4984946;28;20069;-68
2022/03/08 11:16:58;;;;;;;5.43;4.93;;;15.60;41.20;;;;;;4998913;28;20034;-68
2022/03/08 11:19:26;;;;;;;4.95;4.45;;;15.50;41.70;;;;;;4981958;28;20081;-68
2022/03/08 11:21:54;;;;;;;4.20;3.80;;;15.40;41.10;;;;;;5001705;28;20136;-68
2022/03/08 11:24:20;;;;;;;4.65;4.25;;;15.50;41.20;;;;;;4985429;28;20128;-68
2022/03/08 11:26:47;;;;;;;6.05;4.13;;;15.50;39.80;;;;;;4984132;28;20050;-68
2022/03/08 11:29:14;;;;;;;5.15;4.00;;;15.40;40.10;;;;;;5002886;28;20499;-68
2022/03/08 11:31:42;;;;;;;5.50;3.88;;;15.40;40.00;;;;;;4974086;28;20112;-68
2022/03/08 11:34:19;;;;;;;4.80;3.78;;;15.30;41.40;;;;;;4999182;28;20047;-68
2022/03/08 11:36:54;;;;;;;5.18;3.85;;;15.30;40.00;;;;;;4996430;28;20551;-68
2022/03/08 11:39:40;;;;;;;5.95;3.88;;;15.30;40.20;;;;;;4988648;28;20137;-68
2022/03/08 11:42:18;;;;;;;4.72;3.83;;;15.20;39.70;;;;;;4982627;28;20060;-68
2022/03/08 11:45:00;;;;;;;4.53;3.88;;;15.30;40.30;;;;;;4987280;28;20486;-68
2022/03/08 11:47:52;;;;;;;5.32;3.80;;;15.50;42.20;;;;;;4998590;28;20074;-68
2022/03/08 11:50:39;;;;;;;4.65;4.18;;;15.90;42.20;;;;;;4986846;28;20054;-68
2022/03/08 11:53:14;;;;;;;4.75;3.85;;;15.80;41.10;;;;;;5005319;28;20096;-68
2022/03/08 11:55:42;;;;;;;3.85;3.40;;;15.70;40.20;;;;;;4979769;28;20141;-68
2022/03/08 11:58:10;;;;;;;5.93;3.70;;;15.50;40.50;;;;;;4989317;28;20057;-68
2022/03/08 12:00:45;;;;;;;4.72;2.92;;;15.60;41.20;;;;;;4970201;28;20086;-68
2022/03/08 12:03:14;;;;;;;3.20;2.70;;;15.50;40.00;;;;;;5010250;28;20424;-69
2022/03/08 12:05:39;;;;;;;4.10;2.70;;;15.50;40.70;;;;;;4992196;28;20497;-68
2022/03/08 12:08:28;;;;;;;4.13;2.45;;;15.60;41.20;;;;;;5004878;28;20137;-68
2022/03/08 12:11:24;;;;;;;3.40;2.45;;;15.70;40.80;;;;;;4984067;28;20060;-68
2022/03/08 12:14:08;;;;;;;2.78;2.30;;;15.40;39.40;;;;;;4977984;28;20128;-68
2022/03/08 12:16:35;;;;;;;4.03;2.85;;;15.40;39.30;;;;;;4984751;28;20069;-68
2022/03/08 12:19:03;;;;;;;5.00;2.53;;;15.20;40.00;;;;;;4989893;28;20038;-68
2022/03/08 12:21:30;;;;;;;3.30;2.42;;;15.30;39.40;;;;;;5000333;28;20050;-69
2022/03/08 12:24:16;;;;;;;4.82;2.75;;;15.20;39.70;;;;;;5005029;28;20077;-69
2022/03/08 12:26:48;;;;;;;3.38;3.05;;;15.30;39.50;;;;;;5006130;28;20049;-68
2022/03/08 12:29:25;;;;;;;5.93;3.10;;;15.20;40.10;;;;;;5007363;28;20041;-69
2022/03/08 12:32:06;;;;;;;3.80;3.13;;;15.00;40.90;;;;;;4981229;28;20042;-69
2022/03/08 12:34:43;;;;;;;3.60;3.10;;;15.20;40.20;;;;;;5001980;28;20107;-69
2022/03/08 12:37:28;;;;;;;4.95;2.83;;;15.20;40.70;;;;;;4999681;28;20030;-69
2022/03/08 12:40:07;;;;;;;4.72;3.00;;;15.30;40.40;;;;;;5008002;28;20797;-69